sensor_id;sensor_type;location;lat;lon;timestamp;temperature;humidity
35325;DHT22;35135;47.510;19.036;2023-06-22T00:00:59;28.00;60.00
35325;DHT22;35135;47.510;19.036;2023-06-22T00:03:26;28.00;60.00
35325;DHT22;35135;47.510;19.036;2023-06-22T00:05:52;28.00;60.00
35325;DHT22;35135;47.510;19.036;2023-06-22T00:08:19;28.00;59.70
35325;DHT22;35135;47.510;19.036;2023-06-22T00:10:45;28.10;59.90
35325;DHT22;35135;47.510;19.036;2023-06-22T00:13:12;28.10;59.40
35325;DHT22;35135;47.510;19.036;2023-06-22T00:15:40;28.10;59.70
35325;DHT22;35135;47.510;19.036;2023-06-22T00:18:07;28.00;59.60
35325;DHT22;35135;47.510;19.036;2023-06-22T00:20:32;28.10;59.70
35325;DHT22;35135;47.510;19.036;2023-06-22T00:23:02;28.10;59.40
35325;DHT22;35135;47.510;19.036;2023-06-22T00:25:36;28.10;59.60
35325;DHT22;35135;47.510;19.036;2023-06-22T00:28:03;28.00;59.60
35325;DHT22;35135;47.510;19.036;2023-06-22T00:30:30;28.00;59.80
35325;DHT22;35135;47.510;19.036;2023-06-22T00:32:56;28.00;59.90
35325;DHT22;35135;47.510;19.036;2023-06-22T00:35:22;28.10;59.90
35325;DHT22;35135;47.510;19.036;2023-06-22T00:37:48;28.10;59.70
35325;DHT22;35135;47.510;19.036;2023-06-22T00:40:13;28.10;59.50
35325;DHT22;35135;47.510;19.036;2023-06-22T00:42:40;28.10;59.30
35325;DHT22;35135;47.510;19.036;2023-06-22T00:45:07;28.10;59.80
35325;DHT22;35135;47.510;19.036;2023-06-22T00:47:34;28.10;59.10
35325;DHT22;35135;47.510;19.036;2023-06-22T00:50:00;28.10;59.50
35325;DHT22;35135;47.510;19.036;2023-06-22T00:52:26;28.00;59.50
35325;DHT22;35135;47.510;19.036;2023-06-22T00:54:56;28.00;59.50
35325;DHT22;35135;47.510;19.036;2023-06-22T00:57:22;27.80;59.60
35325;DHT22;35135;47.510;19.036;2023-06-22T00:59:51;27.80;59.80
35325;DHT22;35135;47.510;19.036;2023-06-22T01:02:16;27.80;59.90
35325;DHT22;35135;47.510;19.036;2023-06-22T01:04:42;27.70;60.00
35325;DHT22;35135;47.510;19.036;2023-06-22T01:07:31;27.80;60.10
35325;DHT22;35135;47.510;19.036;2023-06-22T01:10:08;27.80;59.80
35325;DHT22;35135;47.510;19.036;2023-06-22T01:12:44;27.80;59.50
35325;DHT22;35135;47.510;19.036;2023-06-22T01:15:27;27.80;59.70
35325;DHT22;35135;47.510;19.036;2023-06-22T01:17:54;27.80;59.70
35325;DHT22;35135;47.510;19.036;2023-06-22T01:20:22;27.70;59.80
35325;DHT22;35135;47.510;19.036;2023-06-22T01:25:48;27.70;60.00
35325;DHT22;35135;47.510;19.036;2023-06-22T01:28:42;27.60;60.20
35325;DHT22;35135;47.510;19.036;2023-06-22T01:31:10;27.60;60.70
35325;DHT22;35135;47.510;19.036;2023-06-22T01:33:39;27.60;60.30
35325;DHT22;35135;47.510;19.036;2023-06-22T01:36:06;27.50;60.40
35325;DHT22;35135;47.510;19.036;2023-06-22T01:38:33;27.50;60.50
35325;DHT22;35135;47.510;19.036;2023-06-22T01:41:00;27.60;60.40
35325;DHT22;35135;47.510;19.036;2023-06-22T01:43:27;27.60;60.20
35325;DHT22;35135;47.510;19.036;2023-06-22T01:45:58;27.70;60.70
35325;DHT22;35135;47.510;19.036;2023-06-22T01:48:24;27.70;60.00
35325;DHT22;35135;47.510;19.036;2023-06-22T01:50:52;27.60;60.10
35325;DHT22;35135;47.510;19.036;2023-06-22T01:53:20;27.70;60.00
35325;DHT22;35135;47.510;19.036;2023-06-22T01:55:45;27.70;59.90
35325;DHT22;35135;47.510;19.036;2023-06-22T01:58:11;27.80;59.90
35325;DHT22;35135;47.510;19.036;2023-06-22T02:00:38;27.80;59.70
35325;DHT22;35135;47.510;19.036;2023-06-22T02:03:10;27.80;59.70
35325;DHT22;35135;47.510;19.036;2023-06-22T02:05:46;27.90;59.60
35325;DHT22;35135;47.510;19.036;2023-06-22T02:08:20;27.90;59.60
35325;DHT22;35135;47.510;19.036;2023-06-22T02:10:48;27.90;59.50
35325;DHT22;35135;47.510;19.036;2023-06-22T02:13:14;27.90;59.40
35325;DHT22;35135;47.510;19.036;2023-06-22T02:15:41;27.90;59.40
35325;DHT22;35135;47.510;19.036;2023-06-22T02:18:07;27.90;59.30
35325;DHT22;35135;47.510;19.036;2023-06-22T02:20:36;27.90;59.30
35325;DHT22;35135;47.510;19.036;2023-06-22T02:23:01;27.90;59.50
35325;DHT22;35135;47.510;19.036;2023-06-22T02:25:27;27.90;59.30
35325;DHT22;35135;47.510;19.036;2023-06-22T02:27:52;27.90;59.50
35325;DHT22;35135;47.510;19.036;2023-06-22T02:30:18;27.90;59.60
35325;DHT22;35135;47.510;19.036;2023-06-22T02:32:44;27.90;59.60
35325;DHT22;35135;47.510;19.036;2023-06-22T02:35:09;27.90;59.70
35325;DHT22;35135;47.510;19.036;2023-06-22T02:37:37;27.90;59.60
35325;DHT22;35135;47.510;19.036;2023-06-22T02:40:08;27.90;59.20
35325;DHT22;35135;47.510;19.036;2023-06-22T02:42:39;27.90;59.30
35325;DHT22;35135;47.510;19.036;2023-06-22T02:45:05;27.90;59.30
35325;DHT22;35135;47.510;19.036;2023-06-22T02:47:31;27.90;59.40
35325;DHT22;35135;47.510;19.036;2023-06-22T02:49:57;27.90;59.10
35325;DHT22;35135;47.510;19.036;2023-06-22T02:52:23;27.90;59.20
35325;DHT22;35135;47.510;19.036;2023-06-22T02:54:48;27.90;59.00
35325;DHT22;35135;47.510;19.036;2023-06-22T02:57:14;27.70;59.30
35325;DHT22;35135;47.510;19.036;2023-06-22T02:59:42;27.70;59.70
35325;DHT22;35135;47.510;19.036;2023-06-22T03:02:09;27.70;59.60
35325;DHT22;35135;47.510;19.036;2023-06-22T03:04:35;27.80;59.50
35325;DHT22;35135;47.510;19.036;2023-06-22T03:07:01;27.80;59.30
35325;DHT22;35135;47.510;19.036;2023-06-22T03:09:30;27.70;59.10
35325;DHT22;35135;47.510;19.036;2023-06-22T03:11:56;27.60;59.40
35325;DHT22;35135;47.510;19.036;2023-06-22T03:14:22;27.60;59.90
35325;DHT22;35135;47.510;19.036;2023-06-22T03:16:47;27.70;59.50
35325;DHT22;35135;47.510;19.036;2023-06-22T03:19:13;27.60;59.40
35325;DHT22;35135;47.510;19.036;2023-06-22T03:21:39;27.60;59.50
35325;DHT22;35135;47.510;19.036;2023-06-22T03:24:06;27.60;59.70
35325;DHT22;35135;47.510;19.036;2023-06-22T03:26:31;27.60;59.40
35325;DHT22;35135;47.510;19.036;2023-06-22T03:28:57;27.60;59.70
35325;DHT22;35135;47.510;19.036;2023-06-22T03:31:23;27.60;59.80
35325;DHT22;35135;47.510;19.036;2023-06-22T03:33:50;27.60;59.20
35325;DHT22;35135;47.510;19.036;2023-06-22T03:36:17;27.60;59.30
35325;DHT22;35135;47.510;19.036;2023-06-22T03:38:49;27.60;59.50
35325;DHT22;35135;47.510;19.036;2023-06-22T03:41:15;27.60;59.60
35325;DHT22;35135;47.510;19.036;2023-06-22T03:43:41;27.60;59.50
35325;DHT22;35135;47.510;19.036;2023-06-22T03:46:07;27.60;59.30
35325;DHT22;35135;47.510;19.036;2023-06-22T03:48:32;27.70;59.30
35325;DHT22;35135;47.510;19.036;2023-06-22T03:50:59;27.70;59.40
35325;DHT22;35135;47.510;19.036;2023-06-22T03:53:25;27.70;58.80
35325;DHT22;35135;47.510;19.036;2023-06-22T03:55:52;27.60;59.30
35325;DHT22;35135;47.510;19.036;2023-06-22T03:58:18;27.60;59.30
35325;DHT22;35135;47.510;19.036;2023-06-22T04:00:49;27.60;59.40
35325;DHT22;35135;47.510;19.036;2023-06-22T04:03:15;27.60;59.50
35325;DHT22;35135;47.510;19.036;2023-06-22T04:05:41;27.60;59.70
35325;DHT22;35135;47.510;19.036;2023-06-22T04:08:07;27.60;59.50
35325;DHT22;35135;47.510;19.036;2023-06-22T04:10:33;27.60;60.10
35325;DHT22;35135;47.510;19.036;2023-06-22T04:12:59;27.60;59.50
35325;DHT22;35135;47.510;19.036;2023-06-22T04:15:24;27.60;59.50
35325;DHT22;35135;47.510;19.036;2023-06-22T04:17:50;27.70;59.40
35325;DHT22;35135;47.510;19.036;2023-06-22T04:20:15;27.60;59.40
35325;DHT22;35135;47.510;19.036;2023-06-22T04:22:41;27.60;59.50
35325;DHT22;35135;47.510;19.036;2023-06-22T04:25:07;27.70;59.50
35325;DHT22;35135;47.510;19.036;2023-06-22T04:27:33;27.70;59.00
35325;DHT22;35135;47.510;19.036;2023-06-22T04:30:06;27.60;59.20
35325;DHT22;35135;47.510;19.036;2023-06-22T04:32:35;27.60;59.30
35325;DHT22;35135;47.510;19.036;2023-06-22T04:35:05;27.50;59.60
35325;DHT22;35135;47.510;19.036;2023-06-22T04:37:32;27.50;59.70
35325;DHT22;35135;47.510;19.036;2023-06-22T04:39:58;27.60;59.50
35325;DHT22;35135;47.510;19.036;2023-06-22T04:42:26;27.70;59.40
35325;DHT22;35135;47.510;19.036;2023-06-22T04:44:52;27.80;59.30
35325;DHT22;35135;47.510;19.036;2023-06-22T04:47:18;27.80;59.10
35325;DHT22;35135;47.510;19.036;2023-06-22T04:49:43;27.90;58.60
35325;DHT22;35135;47.510;19.036;2023-06-22T04:52:11;27.90;58.70
35325;DHT22;35135;47.510;19.036;2023-06-22T04:54:38;27.90;58.50
35325;DHT22;35135;47.510;19.036;2023-06-22T04:57:06;27.90;58.90
35325;DHT22;35135;47.510;19.036;2023-06-22T04:59:36;27.90;58.70
35325;DHT22;35135;47.510;19.036;2023-06-22T05:02:05;28.00;58.60
35325;DHT22;35135;47.510;19.036;2023-06-22T05:04:34;27.90;58.60
35325;DHT22;35135;47.510;19.036;2023-06-22T05:07:04;27.90;58.60
35325;DHT22;35135;47.510;19.036;2023-06-22T05:09:30;27.80;58.60
35325;DHT22;35135;47.510;19.036;2023-06-22T05:11:56;27.90;58.90
35325;DHT22;35135;47.510;19.036;2023-06-22T05:14:27;27.90;58.80
35325;DHT22;35135;47.510;19.036;2023-06-22T05:16:53;28.00;58.70
35325;DHT22;35135;47.510;19.036;2023-06-22T05:19:18;28.00;58.70
35325;DHT22;35135;47.510;19.036;2023-06-22T05:21:44;28.10;58.50
35325;DHT22;35135;47.510;19.036;2023-06-22T05:24:11;28.10;58.50
35325;DHT22;35135;47.510;19.036;2023-06-22T05:26:36;28.10;58.50
35325;DHT22;35135;47.510;19.036;2023-06-22T05:29:03;28.10;58.60
35325;DHT22;35135;47.510;19.036;2023-06-22T05:31:29;28.10;58.30
35325;DHT22;35135;47.510;19.036;2023-06-22T05:33:55;28.20;58.50
35325;DHT22;35135;47.510;19.036;2023-06-22T05:36:22;28.20;58.50
35325;DHT22;35135;47.510;19.036;2023-06-22T05:38:52;28.20;58.40
35325;DHT22;35135;47.510;19.036;2023-06-22T05:41:19;28.20;58.20
35325;DHT22;35135;47.510;19.036;2023-06-22T05:43:44;28.30;58.20
35325;DHT22;35135;47.510;19.036;2023-06-22T05:46:10;28.30;58.20
35325;DHT22;35135;47.510;19.036;2023-06-22T05:48:36;28.40;57.80
35325;DHT22;35135;47.510;19.036;2023-06-22T05:51:01;28.50;57.80
35325;DHT22;35135;47.510;19.036;2023-06-22T05:53:27;28.60;57.50
35325;DHT22;35135;47.510;19.036;2023-06-22T05:55:53;28.70;57.50
35325;DHT22;35135;47.510;19.036;2023-06-22T05:58:18;28.80;57.40
35325;DHT22;35135;47.510;19.036;2023-06-22T06:00:44;28.80;57.20
35325;DHT22;35135;47.510;19.036;2023-06-22T06:03:10;28.90;56.90
35325;DHT22;35135;47.510;19.036;2023-06-22T06:05:37;28.90;56.80
35325;DHT22;35135;47.510;19.036;2023-06-22T06:08:06;29.00;57.00
35325;DHT22;35135;47.510;19.036;2023-06-22T06:10:33;29.00;56.80
35325;DHT22;35135;47.510;19.036;2023-06-22T06:12:59;29.10;56.90
35325;DHT22;35135;47.510;19.036;2023-06-22T06:15:27;29.10;56.60
35325;DHT22;35135;47.510;19.036;2023-06-22T06:17:53;29.10;56.00
35325;DHT22;35135;47.510;19.036;2023-06-22T06:20:20;29.10;56.40
35325;DHT22;35135;47.510;19.036;2023-06-22T06:22:46;29.10;55.70
35325;DHT22;35135;47.510;19.036;2023-06-22T06:25:13;29.10;55.70
35325;DHT22;35135;47.510;19.036;2023-06-22T06:27:46;29.10;55.70
35325;DHT22;35135;47.510;19.036;2023-06-22T06:30:13;29.10;55.70
35325;DHT22;35135;47.510;19.036;2023-06-22T06:32:39;29.10;55.70
35325;DHT22;35135;47.510;19.036;2023-06-22T06:35:07;29.10;56.00
35325;DHT22;35135;47.510;19.036;2023-06-22T06:37:36;29.20;55.90
35325;DHT22;35135;47.510;19.036;2023-06-22T06:40:03;29.20;55.70
35325;DHT22;35135;47.510;19.036;2023-06-22T06:42:31;29.20;55.20
35325;DHT22;35135;47.510;19.036;2023-06-22T06:44:57;29.20;54.60
35325;DHT22;35135;47.510;19.036;2023-06-22T06:47:22;29.20;54.90
35325;DHT22;35135;47.510;19.036;2023-06-22T06:49:48;29.20;54.50
35325;DHT22;35135;47.510;19.036;2023-06-22T06:52:14;29.30;54.00
35325;DHT22;35135;47.510;19.036;2023-06-22T06:54:40;29.30;53.50
35325;DHT22;35135;47.510;19.036;2023-06-22T06:57:07;29.30;53.80
35325;DHT22;35135;47.510;19.036;2023-06-22T06:59:36;29.30;53.40
35325;DHT22;35135;47.510;19.036;2023-06-22T07:02:01;29.20;53.30
35325;DHT22;35135;47.510;19.036;2023-06-22T07:04:27;29.30;53.50
35325;DHT22;35135;47.510;19.036;2023-06-22T07:06:53;29.30;53.60
35325;DHT22;35135;47.510;19.036;2023-06-22T07:09:18;29.30;53.60
35325;DHT22;35135;47.510;19.036;2023-06-22T07:11:44;29.40;53.40
35325;DHT22;35135;47.510;19.036;2023-06-22T07:14:09;29.40;53.60
35325;DHT22;35135;47.510;19.036;2023-06-22T07:16:35;29.40;53.20
35325;DHT22;35135;47.510;19.036;2023-06-22T07:19:01;29.40;52.60
35325;DHT22;35135;47.510;19.036;2023-06-22T07:21:26;29.40;52.50
35325;DHT22;35135;47.510;19.036;2023-06-22T07:23:52;29.40;52.40
35325;DHT22;35135;47.510;19.036;2023-06-22T07:26:18;29.40;52.40
35325;DHT22;35135;47.510;19.036;2023-06-22T07:28:43;29.40;52.10
35325;DHT22;35135;47.510;19.036;2023-06-22T07:31:09;29.40;52.20
35325;DHT22;35135;47.510;19.036;2023-06-22T07:33:35;29.40;52.10
35325;DHT22;35135;47.510;19.036;2023-06-22T07:36:00;29.40;51.40
35325;DHT22;35135;47.510;19.036;2023-06-22T07:38:28;29.40;52.10
35325;DHT22;35135;47.510;19.036;2023-06-22T07:40:53;29.40;51.80
35325;DHT22;35135;47.510;19.036;2023-06-22T07:43:19;29.40;51.90
35325;DHT22;35135;47.510;19.036;2023-06-22T07:45:49;29.40;52.00
35325;DHT22;35135;47.510;19.036;2023-06-22T07:48:20;29.40;52.10
35325;DHT22;35135;47.510;19.036;2023-06-22T07:50:46;29.40;52.20
35325;DHT22;35135;47.510;19.036;2023-06-22T07:53:12;29.40;52.10
35325;DHT22;35135;47.510;19.036;2023-06-22T07:55:38;29.40;52.10
35325;DHT22;35135;47.510;19.036;2023-06-22T07:58:03;29.40;51.60
35325;DHT22;35135;47.510;19.036;2023-06-22T08:00:29;29.40;51.70
35325;DHT22;35135;47.510;19.036;2023-06-22T08:02:55;29.40;52.20
35325;DHT22;35135;47.510;19.036;2023-06-22T08:05:20;29.50;51.70
35325;DHT22;35135;47.510;19.036;2023-06-22T08:07:46;29.50;52.50
35325;DHT22;35135;47.510;19.036;2023-06-22T08:10:12;29.50;52.50
35325;DHT22;35135;47.510;19.036;2023-06-22T08:12:39;29.40;52.50
35325;DHT22;35135;47.510;19.036;2023-06-22T08:15:06;29.50;52.70
35325;DHT22;35135;47.510;19.036;2023-06-22T08:17:33;29.50;52.50
35325;DHT22;35135;47.510;19.036;2023-06-22T08:19:58;29.50;52.60
35325;DHT22;35135;47.510;19.036;2023-06-22T08:22:24;29.50;52.30
35325;DHT22;35135;47.510;19.036;2023-06-22T08:24:50;29.50;52.50
35325;DHT22;35135;47.510;19.036;2023-06-22T08:27:16;29.50;52.10
35325;DHT22;35135;47.510;19.036;2023-06-22T08:29:43;29.50;52.40
35325;DHT22;35135;47.510;19.036;2023-06-22T08:32:11;29.50;52.30
35325;DHT22;35135;47.510;19.036;2023-06-22T08:34:37;29.50;52.30
35325;DHT22;35135;47.510;19.036;2023-06-22T08:37:08;29.50;52.30
35325;DHT22;35135;47.510;19.036;2023-06-22T08:39:34;29.40;52.30
35325;DHT22;35135;47.510;19.036;2023-06-22T08:42:00;29.50;52.10
35325;DHT22;35135;47.510;19.036;2023-06-22T08:44:26;29.40;52.30
35325;DHT22;35135;47.510;19.036;2023-06-22T08:46:51;29.40;52.30
35325;DHT22;35135;47.510;19.036;2023-06-22T08:49:17;29.40;52.20
35325;DHT22;35135;47.510;19.036;2023-06-22T08:51:43;29.40;52.70
35325;DHT22;35135;47.510;19.036;2023-06-22T08:54:11;29.40;52.70
35325;DHT22;35135;47.510;19.036;2023-06-22T08:56:37;29.40;52.60
35325;DHT22;35135;47.510;19.036;2023-06-22T08:59:02;29.40;52.60
35325;DHT22;35135;47.510;19.036;2023-06-22T09:01:28;29.40;52.60
35325;DHT22;35135;47.510;19.036;2023-06-22T09:03:53;29.50;52.70
35325;DHT22;35135;47.510;19.036;2023-06-22T09:06:23;29.40;52.40
35325;DHT22;35135;47.510;19.036;2023-06-22T09:08:50;29.40;52.60
35325;DHT22;35135;47.510;19.036;2023-06-22T09:11:15;29.40;52.80
35325;DHT22;35135;47.510;19.036;2023-06-22T09:13:42;29.40;52.70
35325;DHT22;35135;47.510;19.036;2023-06-22T09:16:08;29.40;52.80
35325;DHT22;35135;47.510;19.036;2023-06-22T09:18:36;29.40;52.90
35325;DHT22;35135;47.510;19.036;2023-06-22T09:21:02;29.40;52.70
35325;DHT22;35135;47.510;19.036;2023-06-22T09:23:28;29.40;53.00
35325;DHT22;35135;47.510;19.036;2023-06-22T09:25:54;29.40;53.20
35325;DHT22;35135;47.510;19.036;2023-06-22T09:28:19;29.40;53.00
35325;DHT22;35135;47.510;19.036;2023-06-22T09:30:45;29.40;52.90
35325;DHT22;35135;47.510;19.036;2023-06-22T09:33:11;29.40;53.20
35325;DHT22;35135;47.510;19.036;2023-06-22T09:35:36;29.40;53.30
35325;DHT22;35135;47.510;19.036;2023-06-22T09:38:02;29.40;53.20
35325;DHT22;35135;47.510;19.036;2023-06-22T09:40:28;29.40;53.30
35325;DHT22;35135;47.510;19.036;2023-06-22T09:42:54;29.40;53.30
35325;DHT22;35135;47.510;19.036;2023-06-22T09:45:19;29.40;53.30
35325;DHT22;35135;47.510;19.036;2023-06-22T09:47:45;29.40;53.40
35325;DHT22;35135;47.510;19.036;2023-06-22T09:50:11;29.40;53.30
35325;DHT22;35135;47.510;19.036;2023-06-22T09:52:37;29.40;53.70
35325;DHT22;35135;47.510;19.036;2023-06-22T09:55:03;29.40;53.70
35325;DHT22;35135;47.510;19.036;2023-06-22T09:57:29;29.40;53.60
35325;DHT22;35135;47.510;19.036;2023-06-22T09:59:55;29.40;53.80
35325;DHT22;35135;47.510;19.036;2023-06-22T10:02:21;29.40;53.80
35325;DHT22;35135;47.510;19.036;2023-06-22T10:04:48;29.40;53.80
35325;DHT22;35135;47.510;19.036;2023-06-22T10:07:14;29.40;53.90
35325;DHT22;35135;47.510;19.036;2023-06-22T10:09:39;29.40;53.70
35325;DHT22;35135;47.510;19.036;2023-06-22T10:12:05;29.50;54.00
35325;DHT22;35135;47.510;19.036;2023-06-22T10:14:31;29.40;53.90
35325;DHT22;35135;47.510;19.036;2023-06-22T10:16:57;29.40;53.90
35325;DHT22;35135;47.510;19.036;2023-06-22T10:19:23;29.40;53.90
35325;DHT22;35135;47.510;19.036;2023-06-22T10:21:48;29.40;53.90
35325;DHT22;35135;47.510;19.036;2023-06-22T10:24:14;29.40;54.00
35325;DHT22;35135;47.510;19.036;2023-06-22T10:26:40;29.40;54.00
35325;DHT22;35135;47.510;19.036;2023-06-22T10:29:05;29.40;54.00
35325;DHT22;35135;47.510;19.036;2023-06-22T10:31:31;29.40;54.20
35325;DHT22;35135;47.510;19.036;2023-06-22T10:33:57;29.40;54.20
35325;DHT22;35135;47.510;19.036;2023-06-22T10:36:22;29.40;54.30
35325;DHT22;35135;47.510;19.036;2023-06-22T10:38:48;29.40;54.20
35325;DHT22;35135;47.510;19.036;2023-06-22T10:41:14;29.40;54.30
35325;DHT22;35135;47.510;19.036;2023-06-22T10:43:41;29.30;54.10
35325;DHT22;35135;47.510;19.036;2023-06-22T10:46:07;29.40;54.20
35325;DHT22;35135;47.510;19.036;2023-06-22T10:48:33;29.40;54.20
35325;DHT22;35135;47.510;19.036;2023-06-22T10:50:59;29.30;54.00
35325;DHT22;35135;47.510;19.036;2023-06-22T10:53:25;29.40;53.90
35325;DHT22;35135;47.510;19.036;2023-06-22T10:55:50;29.30;54.30
35325;DHT22;35135;47.510;19.036;2023-06-22T10:58:18;29.40;54.30
35325;DHT22;35135;47.510;19.036;2023-06-22T11:00:44;29.40;54.20
35325;DHT22;35135;47.510;19.036;2023-06-22T11:03:10;29.40;54.30
35325;DHT22;35135;47.510;19.036;2023-06-22T11:05:35;29.40;54.30
35325;DHT22;35135;47.510;19.036;2023-06-22T11:08:01;29.40;54.30
35325;DHT22;35135;47.510;19.036;2023-06-22T11:10:27;29.40;54.40
35325;DHT22;35135;47.510;19.036;2023-06-22T11:12:53;29.40;54.20
35325;DHT22;35135;47.510;19.036;2023-06-22T11:15:19;29.40;54.20
35325;DHT22;35135;47.510;19.036;2023-06-22T11:17:44;29.40;54.20
35325;DHT22;35135;47.510;19.036;2023-06-22T11:20:11;29.40;54.40
35325;DHT22;35135;47.510;19.036;2023-06-22T11:22:45;29.40;54.40
35325;DHT22;35135;47.510;19.036;2023-06-22T11:25:11;29.40;54.40
35325;DHT22;35135;47.510;19.036;2023-06-22T11:27:37;29.40;54.30
35325;DHT22;35135;47.510;19.036;2023-06-22T11:30:03;29.40;54.20
35325;DHT22;35135;47.510;19.036;2023-06-22T11:32:29;29.40;53.90
35325;DHT22;35135;47.510;19.036;2023-06-22T11:34:55;29.40;53.80
35325;DHT22;35135;47.510;19.036;2023-06-22T11:37:20;29.40;54.70
35325;DHT22;35135;47.510;19.036;2023-06-22T11:39:46;29.40;54.00
35325;DHT22;35135;47.510;19.036;2023-06-22T11:42:12;29.40;54.20
35325;DHT22;35135;47.510;19.036;2023-06-22T11:44:37;29.40;54.10
35325;DHT22;35135;47.510;19.036;2023-06-22T11:47:03;29.40;54.20
35325;DHT22;35135;47.510;19.036;2023-06-22T11:49:32;29.40;54.20
35325;DHT22;35135;47.510;19.036;2023-06-22T11:51:58;29.40;54.20
35325;DHT22;35135;47.510;19.036;2023-06-22T11:54:24;29.40;54.20
35325;DHT22;35135;47.510;19.036;2023-06-22T11:56:49;29.50;54.40
35325;DHT22;35135;47.510;19.036;2023-06-22T11:59:15;29.40;54.50
35325;DHT22;35135;47.510;19.036;2023-06-22T12:01:41;29.40;54.50
35325;DHT22;35135;47.510;19.036;2023-06-22T12:04:06;29.50;54.40
35325;DHT22;35135;47.510;19.036;2023-06-22T12:06:32;29.50;54.50
35325;DHT22;35135;47.510;19.036;2023-06-22T12:08:59;29.50;54.40
35325;DHT22;35135;47.510;19.036;2023-06-22T12:11:24;29.50;54.50
35325;DHT22;35135;47.510;19.036;2023-06-22T12:13:50;29.50;54.40
35325;DHT22;35135;47.510;19.036;2023-06-22T12:16:16;29.50;54.40
35325;DHT22;35135;47.510;19.036;2023-06-22T12:18:41;29.50;54.20
35325;DHT22;35135;47.510;19.036;2023-06-22T12:21:07;29.50;54.50
35325;DHT22;35135;47.510;19.036;2023-06-22T12:23:33;29.50;54.30
35325;DHT22;35135;47.510;19.036;2023-06-22T12:25:58;29.50;54.60
35325;DHT22;35135;47.510;19.036;2023-06-22T12:28:25;29.50;54.60
35325;DHT22;35135;47.510;19.036;2023-06-22T12:30:51;29.50;54.40
35325;DHT22;35135;47.510;19.036;2023-06-22T12:33:16;29.50;54.20
35325;DHT22;35135;47.510;19.036;2023-06-22T12:35:43;29.50;54.30
35325;DHT22;35135;47.510;19.036;2023-06-22T12:38:10;29.50;54.40
35325;DHT22;35135;47.510;19.036;2023-06-22T12:40:36;29.50;54.60
35325;DHT22;35135;47.510;19.036;2023-06-22T12:43:02;29.50;55.10
35325;DHT22;35135;47.510;19.036;2023-06-22T12:45:27;29.50;55.10
35325;DHT22;35135;47.510;19.036;2023-06-22T12:47:57;29.50;55.30
35325;DHT22;35135;47.510;19.036;2023-06-22T12:50:22;29.50;55.30
35325;DHT22;35135;47.510;19.036;2023-06-22T12:52:48;29.50;55.60
35325;DHT22;35135;47.510;19.036;2023-06-22T12:55:14;29.60;55.20
35325;DHT22;35135;47.510;19.036;2023-06-22T12:57:39;29.60;55.50
35325;DHT22;35135;47.510;19.036;2023-06-22T13:00:06;29.50;55.30
35325;DHT22;35135;47.510;19.036;2023-06-22T13:02:33;29.60;55.50
35325;DHT22;35135;47.510;19.036;2023-06-22T13:04:59;29.50;55.30
35325;DHT22;35135;47.510;19.036;2023-06-22T13:07:24;29.60;55.20
35325;DHT22;35135;47.510;19.036;2023-06-22T13:09:50;29.60;55.20
35325;DHT22;35135;47.510;19.036;2023-06-22T13:12:17;29.50;54.80
35325;DHT22;35135;47.510;19.036;2023-06-22T13:14:42;29.60;54.80
35325;DHT22;35135;47.510;19.036;2023-06-22T13:17:09;29.60;54.70
35325;DHT22;35135;47.510;19.036;2023-06-22T13:19:34;29.60;54.70
35325;DHT22;35135;47.510;19.036;2023-06-22T13:22:00;29.60;54.60
35325;DHT22;35135;47.510;19.036;2023-06-22T13:24:26;29.60;54.60
35325;DHT22;35135;47.510;19.036;2023-06-22T13:26:51;29.60;54.60
35325;DHT22;35135;47.510;19.036;2023-06-22T13:29:17;29.50;54.40
35325;DHT22;35135;47.510;19.036;2023-06-22T13:31:43;29.50;54.40
35325;DHT22;35135;47.510;19.036;2023-06-22T13:34:08;29.50;54.40
35325;DHT22;35135;47.510;19.036;2023-06-22T13:36:34;29.50;54.30
35325;DHT22;35135;47.510;19.036;2023-06-22T13:38:59;29.50;54.30
35325;DHT22;35135;47.510;19.036;2023-06-22T13:41:25;29.60;54.30
35325;DHT22;35135;47.510;19.036;2023-06-22T13:43:51;29.50;54.20
35325;DHT22;35135;47.510;19.036;2023-06-22T13:46:17;29.50;54.20
35325;DHT22;35135;47.510;19.036;2023-06-22T13:48:42;29.50;54.10
35325;DHT22;35135;47.510;19.036;2023-06-22T13:51:08;29.50;54.10
35325;DHT22;35135;47.510;19.036;2023-06-22T13:53:34;29.50;54.00
35325;DHT22;35135;47.510;19.036;2023-06-22T13:55:59;29.50;54.00
35325;DHT22;35135;47.510;19.036;2023-06-22T13:58:25;29.50;53.90
35325;DHT22;35135;47.510;19.036;2023-06-22T14:00:51;29.50;53.90
35325;DHT22;35135;47.510;19.036;2023-06-22T14:03:16;29.50;53.80
35325;DHT22;35135;47.510;19.036;2023-06-22T14:05:43;29.50;53.80
35325;DHT22;35135;47.510;19.036;2023-06-22T14:08:08;29.50;53.80
35325;DHT22;35135;47.510;19.036;2023-06-22T14:10:34;29.50;53.80
35325;DHT22;35135;47.510;19.036;2023-06-22T14:13:00;29.50;53.70
35325;DHT22;35135;47.510;19.036;2023-06-22T14:15:26;29.60;53.80
35325;DHT22;35135;47.510;19.036;2023-06-22T14:17:52;29.50;53.70
35325;DHT22;35135;47.510;19.036;2023-06-22T14:20:18;29.50;53.80
35325;DHT22;35135;47.510;19.036;2023-06-22T14:22:43;29.60;53.80
35325;DHT22;35135;47.510;19.036;2023-06-22T14:25:09;29.50;53.70
35325;DHT22;35135;47.510;19.036;2023-06-22T14:27:35;29.50;53.70
35325;DHT22;35135;47.510;19.036;2023-06-22T14:30:00;29.50;53.70
35325;DHT22;35135;47.510;19.036;2023-06-22T14:32:28;29.60;53.80
35325;DHT22;35135;47.510;19.036;2023-06-22T14:34:55;29.60;53.80
35325;DHT22;35135;47.510;19.036;2023-06-22T14:37:21;29.50;54.00
35325;DHT22;35135;47.510;19.036;2023-06-22T14:39:46;29.60;54.20
35325;DHT22;35135;47.510;19.036;2023-06-22T14:42:12;29.50;54.10
35325;DHT22;35135;47.510;19.036;2023-06-22T14:44:37;29.60;54.50
35325;DHT22;35135;47.510;19.036;2023-06-22T14:47:03;29.60;54.60
35325;DHT22;35135;47.510;19.036;2023-06-22T14:49:29;29.60;54.10
35325;DHT22;35135;47.510;19.036;2023-06-22T14:51:55;29.60;54.20
35325;DHT22;35135;47.510;19.036;2023-06-22T14:54:21;29.70;54.20
35325;DHT22;35135;47.510;19.036;2023-06-22T14:56:47;29.70;54.20
35325;DHT22;35135;47.510;19.036;2023-06-22T14:59:13;29.70;54.10
35325;DHT22;35135;47.510;19.036;2023-06-22T15:01:39;29.70;54.00
35325;DHT22;35135;47.510;19.036;2023-06-22T15:04:05;29.70;54.00
35325;DHT22;35135;47.510;19.036;2023-06-22T15:06:31;29.70;54.00
35325;DHT22;35135;47.510;19.036;2023-06-22T15:08:56;29.70;54.00
35325;DHT22;35135;47.510;19.036;2023-06-22T15:11:22;29.70;54.00
35325;DHT22;35135;47.510;19.036;2023-06-22T15:13:48;29.70;54.00